Flight Track Log - Related Links

Times and Time Zones

All times are in EDT time to prevent confusion due to time zone crossing. See the N6GD flight status page for this flight to view local times or setup timezone preferences in your user account.


Time Position Orientation Groundspeed Altitude Reporting Facility
EDT Latitude Longitude Course Direction KTS MPH feet Rate Location/Type
Sun 12:19:38 PM 26.2019 -80.1319 85° East 176 203 1,700  Level Miami Center
Sun 12:20:41 PM 26.2539 -80.1058 24° Northeast 245 282 4,600 2,880 Climbing Miami Center
Sun 12:21:43 PM 26.2756 -80.1889 286° West 258 297 7,700 2,903 Climbing Miami Center
Sun 12:22:45 PM 26.2978 -80.2667 288° West 262 302 10,600 2,226 Climbing Miami Center
Sun 12:23:47 PM 26.3261 -80.3611 289° West 304 350 12,300 1,632 Climbing Miami Center
Sun 12:24:50 PM 26.3550 -80.4614 288° West 339 390 14,000 1,728 Climbing Miami Center
Sun 12:25:52 PM 26.4008 -80.5683 296° West 356 410 15,900 968 Climbing Miami Center
Sun 12:26:54 PM 26.4539 -80.6717 300° West 383 441 16,000 48 Climbing Miami Center
Sun 12:27:56 PM 26.5106 -80.7800 300° West 377 434 16,000  Level Miami Center
Sun 12:28:58 PM 26.5614 -80.8783 300° West 369 425 16,000  Level Miami Center
Sun 12:30:01 PM 26.6139 -80.9811 300° West 367 422 16,000  Level Miami Center
Sun 12:31:03 PM 26.6656 -81.0792 301° West 366 421 16,000  Level Miami Center
Sun 12:32:05 PM 26.7203 -81.1842 300° West 365 420 16,000  Level Miami Center
Sun 12:33:07 PM 26.7731 -81.2867 300° West 382 440 16,000  Level Miami Center
Sun 12:34:09 PM 26.8339 -81.3997 301° West 395 455 16,000  Level Miami Center
Sun 12:35:12 PM 26.9164 -81.4978 313° West 402 463 16,000  Level Miami Center
Sun 12:36:14 PM 26.9928 -81.5886 313° West 405 466 16,000  Level Miami Center
Sun 12:37:16 PM 27.0664 -81.6742 314° West 407 468 16,000  Level Miami Center
Sun 12:38:18 PM 27.1433 -81.7675 313° West 407 468 16,000 -435 Level Miami Center
Sun 12:39:20 PM 27.2364 -81.8778 314° West 406 467 15,100 -581 Descending Miami Center
Sun 12:40:22 PM 27.3086 -81.9631 314° West 382 440 14,800 -1,488 Descending Miami Center
Sun 12:41:25 PM 27.3806 -82.0489 313° West 368 423 12,000 -1,824 Descending Miami Center
Sun 12:42:27 PM 27.4481 -82.1253 315° West 353 406 11,000 -774 Descending Miami Center
Sun 12:43:29 PM 27.5217 -82.1839 325° Northwest 327 376 10,400 -968 Descending Miami Center
Sun 12:44:31 PM 27.5700 -82.2489 310° West 289 333 9,000 -1,839 Descending Miami Center
Sun 12:45:33 PM 27.5542 -82.3303 258° West 267 307 6,600 -2,922 Descending Miami Center
Sun 12:46:26 PM 27.5333 -82.4167 255° West 254 292 3,400 -1,815 Descending Tampa TRACON
Sun 12:47:32 PM 27.5333 -82.5000 270° West 252 290 3,000 -200 Descending Tampa TRACON
Sun 12:48:26 PM 27.5667 -82.5667 299° West 253 291 3,000  Level Tampa TRACON
Sun 12:49:26 PM 27.6000 -82.6167 307° West 256 295 3,000  Level Tampa TRACON
Sun 12:50:26 PM 27.6667 -82.6500 336° Northwest 251 289 3,000 -400 Level Tampa TRACON
Sun 12:51:26 PM 27.7333 -82.6667 348° North 245 282 2,200 -545 Descending Tampa TRACON
Sun 12:52:27 PM 27.8000 -82.6667 360° North 197 227 1,900 -496 Descending Tampa TRACON
Sun 12:53:27 PM 27.8333 -82.6833 336° Northwest 142 163 1,200 -650 Descending Tampa TRACON
Sun 12:54:27 PM 27.8667 -82.6833 360° North 126 145 600 -600 Descending Tampa TRACON
Sun 12:56:00 PM 27.9100 -82.6875 355° North  Level Estimated

Login

Don't have an account? Register now (free) for customized features, flight alerts, and more!